Time;durP1;ratioP1;P1;durP2;ratioP2;P2;SDS_P1;SDS_P2;PMS_P1;PMS_P2;Temp;Humidity;BMP_temperature;BMP_pressure;BME280_temperature;BME280_humidity;BME280_pressure;Samples;Min_cycle;Max_cycle;Signal;HPM_P1;HPM_P2
2022/07/03 00:01:25;;;;;;;2.28;1.55;;;17.90;99.90;;;;;;6164308;23;20071;-84
2022/07/03 00:03:51;;;;;;;1.33;1.23;;;17.90;99.90;;;;;;6165690;23;20488;-84
2022/07/03 00:06:17;;;;;;;2.95;1.27;;;18.00;99.90;;;;;;6165797;23;20017;-84
2022/07/03 00:08:43;;;;;;;1.70;1.60;;;17.90;99.90;;;;;;6141692;23;20028;-84
2022/07/03 00:11:09;;;;;;;1.67;1.25;;;17.90;99.90;;;;;;6190735;23;20013;-84
2022/07/03 00:13:35;;;;;;;1.70;1.40;;;17.80;99.90;;;;;;6141773;23;20012;-84
2022/07/03 00:16:00;;;;;;;3.75;1.40;;;17.80;99.90;;;;;;6190760;23;20479;-84
2022/07/03 00:18:26;;;;;;;3.23;1.23;;;17.80;99.90;;;;;;6141450;23;20051;-84
2022/07/03 00:21:02;;;;;;;1.13;1.02;;;17.70;99.90;;;;;;6165830;23;20573;-84
2022/07/03 00:23:30;;;;;;;1.08;1.00;;;17.70;99.90;;;;;;6165980;23;20020;-84
2022/07/03 00:26:01;;;;;;;1.50;1.40;;;17.70;99.90;;;;;;6165941;23;20024;-87
2022/07/03 00:28:28;;;;;;;1.35;1.25;;;17.70;99.90;;;;;;6190681;23;20082;-84
2022/07/03 00:30:55;;;;;;;1.00;1.00;;;17.60;99.90;;;;;;6191299;23;20051;-84
2022/07/03 00:33:23;;;;;;;2.72;1.48;;;17.60;99.90;;;;;;6190320;23;20459;-84
2022/07/03 00:35:54;;;;;;;1.23;1.17;;;17.60;99.90;;;;;;6215561;23;20067;-84
2022/07/03 00:38:21;;;;;;;1.30;1.10;;;17.60;99.90;;;;;;6190747;23;20021;-84
2022/07/03 00:40:47;;;;;;;1.13;1.02;;;17.60;99.90;;;;;;6165822;23;20079;-84
2022/07/03 00:43:16;;;;;;;1.20;1.20;;;17.50;99.90;;;;;;6165909;23;20016;-84
2022/07/03 00:45:46;;;;;;;1.17;1.08;;;17.50;99.90;;;;;;6165558;23;20013;-84
2022/07/03 00:48:15;;;;;;;1.25;1.15;;;17.50;99.90;;;;;;6166295;23;20086;-84
2022/07/03 00:50:51;;;;;;;2.15;1.52;;;17.50;99.90;;;;;;6190992;23;20396;-84
2022/07/03 00:57:42;;;;;;;2.42;1.40;;;17.40;99.90;;;;;;6216964;23;20011;-84
2022/07/03 01:00:09;;;;;;;1.65;1.50;;;17.40;99.90;;;;;;6137277;23;20017;-84
2022/07/03 01:10:16;;;;;;;1.63;1.52;;;17.20;99.90;;;;;;6216421;23;20376;-84
2022/07/03 01:13:14;;;;;;;3.08;1.60;;;17.10;99.90;;;;;;6165446;23;20095;-84
2022/07/03 01:15:56;;;;;;;1.30;1.20;;;17.00;99.90;;;;;;6190384;23;20444;-84
2022/07/03 01:18:59;;;;;;;2.03;1.20;;;17.00;99.90;;;;;;6165435;23;20026;-84
2022/07/03 01:21:37;;;;;;;1.27;1.20;;;17.00;99.90;;;;;;6146051;23;20023;-84
2022/07/03 01:24:44;;;;;;;1.40;1.30;;;17.00;99.90;;;;;;6190222;23;20048;-84
2022/07/03 01:27:18;;;;;;;1.60;1.50;;;16.90;99.90;;;;;;6188767;23;20074;-84
2022/07/03 01:29:56;;;;;;;1.42;1.33;;;16.80;99.90;;;;;;6190065;23;20016;-84
2022/07/03 01:32:27;;;;;;;1.55;1.30;;;16.80;99.90;;;;;;6164908;23;20453;-84
2022/07/03 01:34:55;;;;;;;2.20;1.55;;;16.80;99.90;;;;;;6190294;23;20067;-84
2022/07/03 01:37:24;;;;;;;2.92;1.40;;;16.70;99.90;;;;;;6189913;23;20150;-83
2022/07/03 01:39:52;;;;;;;4.38;1.48;;;16.70;99.90;;;;;;6189922;23;20012;-85
2022/07/03 01:42:19;;;;;;;1.30;1.20;;;16.60;99.90;;;;;;6164543;23;20086;-84
2022/07/03 01:44:48;;;;;;;1.20;1.20;;;16.60;99.90;;;;;;6189865;23;20075;-86
2022/07/03 01:47:15;;;;;;;3.33;2.10;;;16.50;99.90;;;;;;6190082;23;20052;-84
2022/07/03 01:49:42;;;;;;;2.10;1.90;;;16.50;99.90;;;;;;6165612;23;20013;-84
2022/07/03 01:52:10;;;;;;;;;;;16.40;99.90;;;;;;6190391;23;20020;-84
2022/07/03 01:54:39;;;;;;;1.77;1.40;;;16.40;99.90;;;;;;6189907;23;19927;-83
2022/07/03 01:57:06;;;;;;;1.10;1.10;;;16.40;99.90;;;;;;6189560;23;20572;-84
2022/07/03 01:59:32;;;;;;;1.77;1.67;;;16.60;99.90;;;;;;6215870;23;20024;-84
2022/07/03 02:02:28;;;;;;;1.23;1.15;;;16.30;99.90;;;;;;6140751;23;20024;-83
2022/07/03 02:05:07;;;;;;;2.28;1.77;;;16.30;99.90;;;;;;6190431;23;20023;-83
2022/07/03 02:07:44;;;;;;;2.35;1.52;;;16.20;99.90;;;;;;6165052;23;20445;-84
2022/07/03 02:10:16;;;;;;;1.83;1.50;;;16.20;99.90;;;;;;6189922;23;20036;-83
2022/07/03 02:12:51;;;;;;;2.33;1.55;;;16.10;99.90;;;;;;6165033;23;20023;-84
2022/07/03 02:15:23;;;;;;;1.88;1.35;;;16.10;99.90;;;;;;6190018;23;20132;-84
2022/07/03 02:17:51;;;;;;;1.58;1.20;;;16.10;99.90;;;;;;6216800;23;20016;-84
2022/07/03 02:20:17;;;;;;;3.53;2.00;;;16.00;99.90;;;;;;6189811;23;20012;-84
2022/07/03 02:22:48;;;;;;;2.25;2.00;;;16.00;99.90;;;;;;6164814;23;20100;-83
2022/07/03 02:29:05;;;;;;;2.08;1.40;;;15.90;99.90;;;;;;6215993;23;20008;-84
2022/07/03 02:31:51;;;;;;;2.85;1.58;;;15.80;99.90;;;;;;6164770;23;20017;-84
2022/07/03 02:34:23;;;;;;;2.10;1.65;;;15.80;99.90;;;;;;6189477;23;20017;-83
2022/07/03 02:36:52;;;;;;;1.52;1.38;;;15.70;99.90;;;;;;6189486;23;20020;-83
2022/07/03 02:39:31;;;;;;;2.25;1.80;;;15.70;99.90;;;;;;6190595;23;20021;-83
2022/07/03 02:42:02;;;;;;;1.52;1.42;;;15.60;99.90;;;;;;6216650;23;20365;-83
2022/07/03 02:44:40;;;;;;;2.83;1.55;;;15.60;99.90;;;;;;6189367;23;20016;-83
2022/07/03 02:47:15;;;;;;;;;;;15.60;99.90;;;;;;6189595;23;20020;-83
2022/07/03 02:49:44;;;;;;;2.33;2.13;;;15.50;99.90;;;;;;6164606;23;19916;-84
2022/07/03 02:52:18;;;;;;;1.20;1.20;;;15.50;99.90;;;;;;6189315;23;20024;-83
2022/07/03 02:54:47;;;;;;;2.05;1.85;;;15.50;99.90;;;;;;6164600;23;20453;-84
2022/07/03 02:57:17;;;;;;;2.08;1.88;;;15.50;99.90;;;;;;6189074;23;20091;-83
2022/07/03 02:59:46;;;;;;;1.90;1.55;;;15.40;99.90;;;;;;6188737;23;20017;-84
2022/07/03 03:02:31;;;;;;;2.00;1.38;;;15.40;99.90;;;;;;6188849;23;20501;-84
2022/07/03 03:05:21;;;;;;;2.17;2.00;;;15.30;99.90;;;;;;6164411;23;20021;-83
2022/07/03 03:08:28;;;;;;;1.60;1.50;;;15.30;99.90;;;;;;6189310;23;20013;-86
2022/07/03 03:11:09;;;;;;;1.83;1.65;;;15.20;99.90;;;;;;6189058;23;20048;-84
2022/07/03 03:13:35;;;;;;;1.92;1.75;;;15.20;99.90;;;;;;6189149;23;20020;-84
2022/07/03 03:16:06;;;;;;;2.05;1.92;;;15.20;99.90;;;;;;6189259;23;20021;-84
2022/07/03 03:18:36;;;;;;;3.40;2.30;;;15.20;99.90;;;;;;6164360;23;20645;-84
2022/07/03 03:21:03;;;;;;;4.68;2.80;;;15.30;99.90;;;;;;6215957;23;20055;-84
2022/07/03 03:23:49;;;;;;;2.40;2.20;;;15.30;99.90;;;;;;6188813;23;20027;-84
2022/07/03 03:26:23;;;;;;;4.43;2.90;;;15.30;99.90;;;;;;6189224;23;20021;-83
2022/07/03 03:28:50;;;;;;;4.10;3.58;;;15.30;99.90;;;;;;6215748;23;20013;-84
2022/07/03 03:31:18;;;;;;;3.38;3.05;;;15.40;99.90;;;;;;6189288;23;20457;-84
2022/07/03 03:33:47;;;;;;;3.30;2.72;;;15.40;99.90;;;;;;6140104;23;20008;-83
2022/07/03 03:36:17;;;;;;;3.00;2.40;;;15.30;99.90;;;;;;6189680;23;20016;-83
2022/07/03 03:38:44;;;;;;;5.47;3.30;;;15.40;99.90;;;;;;6191258;23;20461;-84
2022/07/03 03:41:10;;;;;;;3.05;2.78;;;15.40;99.90;;;;;;6166404;23;20445;-84
2022/07/03 03:43:37;;;;;;;3.20;2.13;;;15.30;99.90;;;;;;6191221;23;20023;-84
2022/07/03 03:46:03;;;;;;;3.50;2.63;;;15.30;99.90;;;;;;6166495;23;20342;-84
2022/07/03 03:48:31;;;;;;;;;;;15.30;99.90;;;;;;6166756;23;20418;-84
2022/07/03 03:50:57;;;;;;;2.70;2.50;;;15.30;99.90;;;;;;6191614;23;19916;-84
2022/07/03 03:53:24;;;;;;;4.72;2.50;;;15.30;99.90;;;;;;6166257;23;20372;-84
2022/07/03 03:56:01;;;;;;;6.28;2.47;;;15.30;99.90;;;;;;6166880;23;20074;-84
2022/07/03 03:58:31;;;;;;;2.90;2.60;;;15.30;99.90;;;;;;6166358;23;20307;-85
2022/07/03 04:00:58;;;;;;;2.63;2.40;;;15.30;99.90;;;;;;6216119;23;20013;-84
2022/07/03 04:03:28;;;;;;;3.20;2.88;;;15.30;99.90;;;;;;6190975;23;20380;-84
2022/07/03 04:05:54;;;;;;;4.13;3.10;;;15.30;99.90;;;;;;6165752;23;20020;-84
2022/07/03 04:08:22;;;;;;;2.85;2.65;;;15.40;99.90;;;;;;6190757;23;20441;-84
2022/07/03 04:10:49;;;;;;;2.88;2.47;;;15.40;99.90;;;;;;6190614;23;20373;-84
2022/07/03 04:13:15;;;;;;;2.80;2.35;;;15.40;99.90;;;;;;6190556;23;20071;-84
2022/07/03 04:15:42;;;;;;;5.13;2.85;;;15.40;99.90;;;;;;6190723;23;20013;-84
2022/07/03 04:18:07;;;;;;;3.53;3.00;;;15.40;99.90;;;;;;6166216;23;20032;-84
2022/07/03 04:20:33;;;;;;;2.97;2.63;;;15.40;99.90;;;;;;6217079;23;20016;-84
2022/07/03 04:22:59;;;;;;;5.63;2.97;;;15.40;99.90;;;;;;6165865;23;20298;-84
2022/07/03 04:25:25;;;;;;;2.60;2.28;;;15.50;99.90;;;;;;6165969;23;20464;-84
2022/07/03 04:27:51;;;;;;;2.83;2.58;;;15.50;99.90;;;;;;6165847;23;20023;-84
2022/07/03 04:30:17;;;;;;;3.42;2.60;;;15.50;99.90;;;;;;6217339;23;20024;-84
2022/07/03 04:32:43;;;;;;;4.18;2.50;;;15.50;99.90;;;;;;6165775;23;20013;-84
2022/07/03 04:35:09;;;;;;;5.10;2.85;;;15.40;99.90;;;;;;6165926;23;20012;-84
2022/07/03 04:37:35;;;;;;;3.15;2.45;;;15.40;99.90;;;;;;6141189;23;20016;-84
2022/07/03 04:40:01;;;;;;;5.20;2.45;;;15.40;99.90;;;;;;6190629;23;20020;-84
2022/07/03 04:42:26;;;;;;;2.95;2.38;;;15.40;99.90;;;;;;6165696;23;20013;-84
2022/07/03 04:44:52;;;;;;;2.90;2.27;;;15.40;99.90;;;;;;6190456;23;20027;-84
2022/07/03 04:47:18;;;;;;;3.70;3.10;;;15.30;99.90;;;;;;6165717;23;20026;-84
2022/07/03 04:49:44;;;;;;;3.75;2.83;;;15.30;99.90;;;;;;6190205;23;20382;-84
2022/07/03 04:52:10;;;;;;;4.53;2.67;;;15.30;99.90;;;;;;6190192;23;20023;-84
2022/07/03 04:54:36;;;;;;;2.50;2.30;;;15.30;99.90;;;;;;6190333;23;20099;-84
2022/07/03 04:57:02;;;;;;;3.03;2.63;;;15.30;99.90;;;;;;6215639;23;20341;-85
2022/07/03 04:59:28;;;;;;;2.45;2.25;;;15.30;99.90;;;;;;6165441;23;20021;-84
2022/07/03 05:01:54;;;;;;;3.70;2.42;;;15.30;99.90;;;;;;6190158;23;20022;-84
2022/07/03 05:04:19;;;;;;;3.90;2.60;;;15.30;99.90;;;;;;6141074;23;20445;-84
2022/07/03 05:06:45;;;;;;;2.87;2.60;;;15.40;99.90;;;;;;6140752;23;20025;-84
2022/07/03 05:09:11;;;;;;;5.40;3.70;;;15.40;99.90;;;;;;6165416;23;20052;-84
2022/07/03 05:11:37;;;;;;;5.53;2.65;;;15.50;99.90;;;;;;6190159;23;20393;-84
2022/07/03 05:14:04;;;;;;;2.25;2.10;;;15.60;99.90;;;;;;6165220;23;20020;-84
2022/07/03 05:16:30;;;;;;;3.30;2.40;;;15.70;99.90;;;;;;6165200;23;20020;-83
2022/07/03 05:18:56;;;;;;;2.72;2.53;;;15.90;99.90;;;;;;6165325;23;20162;-83
2022/07/03 05:21:21;;;;;;;2.95;2.65;;;16.00;99.90;;;;;;6165598;23;20044;-84
2022/07/03 05:23:47;;;;;;;3.50;3.30;;;16.20;99.90;;;;;;6190184;23;20476;-83
2022/07/03 05:26:13;;;;;;;3.53;2.73;;;16.20;99.90;;;;;;6190370;23;20338;-84
2022/07/03 05:28:38;;;;;;;4.55;3.30;;;16.40;99.90;;;;;;6190139;23;20013;-85
2022/07/03 05:31:04;;;;;;;2.80;2.60;;;16.60;99.90;;;;;;6166229;23;20050;-84
2022/07/03 05:33:30;;;;;;;2.50;2.30;;;16.80;99.90;;;;;;6190151;23;20167;-84
2022/07/03 05:35:57;;;;;;;3.60;3.13;;;17.00;99.90;;;;;;6140869;23;20256;-84
2022/07/03 05:41:07;;;;;;;6.10;2.50;;;17.40;99.90;;;;;;6169138;23;20010;-84
2022/07/03 05:43:32;;;;;;;3.47;2.83;;;17.60;99.90;;;;;;6190453;23;20021;-84
2022/07/03 05:45:58;;;;;;;2.55;2.35;;;17.70;99.90;;;;;;6141131;23;20451;-84
2022/07/03 05:48:24;;;;;;;3.08;2.78;;;17.90;99.90;;;;;;6190247;23;20063;-84
2022/07/03 05:50:50;;;;;;;2.88;2.55;;;18.00;99.90;;;;;;6189986;23;20319;-84
2022/07/03 05:53:15;;;;;;;2.35;2.17;;;18.20;99.90;;;;;;6189782;23;20016;-84
2022/07/03 05:55:41;;;;;;;3.80;2.55;;;18.40;99.90;;;;;;6216314;23;20023;-84
2022/07/03 05:58:07;;;;;;;3.38;2.28;;;18.60;99.90;;;;;;6164509;23;20056;-84
2022/07/03 06:00:33;;;;;;;5.28;3.45;;;18.60;99.90;;;;;;6214549;23;20017;-84
2022/07/03 06:02:58;;;;;;;3.13;2.17;;;18.60;99.90;;;;;;6214809;23;20023;-84
2022/07/03 06:05:26;;;;;;;3.38;2.40;;;18.50;99.90;;;;;;6140459;23;20012;-84
2022/07/03 06:07:51;;;;;;;4.75;1.80;;;18.50;99.90;;;;;;6189690;23;20488;-84
2022/07/03 06:10:17;;;;;;;2.60;2.40;;;18.40;99.90;;;;;;6216291;23;20056;-84
2022/07/03 06:12:43;;;;;;;2.78;1.98;;;18.40;99.90;;;;;;6214680;23;20013;-86
2022/07/03 06:15:09;;;;;;;2.42;2.20;;;18.30;99.90;;;;;;6165101;23;20134;-84
2022/07/03 06:17:36;;;;;;;2.13;1.92;;;18.20;99.90;;;;;;6165111;23;20028;-83
2022/07/03 06:20:03;;;;;;;4.30;2.08;;;18.10;99.90;;;;;;6189676;23;20020;-83
2022/07/03 06:22:28;;;;;;;2.30;2.10;;;18.20;99.90;;;;;;6188898;23;20016;-83
2022/07/03 06:24:54;;;;;;;4.20;1.80;;;18.40;99.90;;;;;;6163550;23;20468;-83
2022/07/03 06:27:20;;;;;;;2.80;1.92;;;18.60;99.90;;;;;;6163856;23;20235;-84
2022/07/03 06:29:46;;;;;;;3.17;2.33;;;18.80;99.90;;;;;;6188413;23;20147;-87
2022/07/03 06:32:11;;;;;;;4.28;2.05;;;19.00;99.90;;;;;;6188339;23;20506;-84
2022/07/03 06:34:37;;;;;;;2.97;2.30;;;19.30;99.90;;;;;;6164014;23;20079;-84
2022/07/03 06:37:03;;;;;;;1.70;1.55;;;19.40;99.90;;;;;;6214818;23;20016;-84
2022/07/03 06:39:28;;;;;;;4.63;1.58;;;19.40;99.90;;;;;;6188278;23;20464;-87
2022/07/03 06:41:54;;;;;;;3.60;1.80;;;19.40;99.90;;;;;;6187232;23;20079;-86
2022/07/03 06:44:20;;;;;;;2.63;1.75;;;19.50;99.90;;;;;;6188072;23;20244;-86
2022/07/03 06:46:45;;;;;;;2.60;1.45;;;19.40;99.90;;;;;;6188529;23;20047;-87
2022/07/03 06:49:11;;;;;;;1.90;1.67;;;19.40;99.90;;;;;;6163350;23;20024;-86
2022/07/03 06:51:37;;;;;;;1.88;1.65;;;19.20;99.90;;;;;;6163404;23;20008;-86
2022/07/03 06:54:03;;;;;;;1.73;1.63;;;19.20;99.90;;;;;;6187745;23;20011;-89
2022/07/03 06:56:28;;;;;;;1.75;1.20;;;19.10;99.90;;;;;;6188177;23;20067;-88
2022/07/03 06:58:54;;;;;;;1.50;1.40;;;19.10;99.90;;;;;;6186792;23;20025;-88
2022/07/03 07:01:20;;;;;;;1.30;1.20;;;19.10;99.90;;;;;;6188465;23;20025;-87
2022/07/03 07:03:46;;;;;;;1.52;1.42;;;19.10;99.90;;;;;;6163663;23;20502;-86
2022/07/03 07:06:11;;;;;;;1.70;1.60;;;19.20;99.90;;;;;;6187627;23;20042;-86
2022/07/03 07:08:37;;;;;;;1.88;1.27;;;19.50;99.90;;;;;;6213113;23;20028;-86
2022/07/03 07:11:03;;;;;;;1.92;1.15;;;19.70;99.90;;;;;;6187746;23;20071;-88
2022/07/03 07:13:28;;;;;;;1.90;1.67;;;19.80;99.90;;;;;;6141086;23;20090;-88
2022/07/03 07:15:54;;;;;;;1.80;1.05;;;19.90;99.90;;;;;;6164518;23;20055;-85
2022/07/03 07:18:20;;;;;;;1.20;0.85;;;19.90;99.90;;;;;;6190973;23;20339;-86
2022/07/03 07:20:45;;;;;;;1.27;0.90;;;20.00;99.90;;;;;;6141255;23;20043;-88
2022/07/03 07:23:11;;;;;;;3.83;1.08;;;20.00;99.90;;;;;;6216664;23;20078;-85
2022/07/03 07:25:37;;;;;;;1.67;1.30;;;20.00;99.90;;;;;;6141154;23;20095;-86
2022/07/03 07:28:02;;;;;;;1.45;0.95;;;20.10;99.90;;;;;;6190186;23;20016;-85
2022/07/03 07:30:28;;;;;;;1.85;0.90;;;20.00;99.90;;;;;;6165490;23;20016;-85
2022/07/03 07:32:54;;;;;;;1.13;0.90;;;20.00;99.90;;;;;;6189869;23;20012;-89
2022/07/03 07:35:19;;;;;;;1.42;1.33;;;19.90;99.90;;;;;;6140978;23;20465;-83
2022/07/03 07:37:45;;;;;;;1.15;1.02;;;19.90;99.90;;;;;;6216874;23;20456;-83
2022/07/03 07:40:11;;;;;;;1.30;1.10;;;20.00;99.90;;;;;;6140556;23;20124;-85
2022/07/03 07:42:37;;;;;;;0.82;0.80;;;20.10;99.90;;;;;;6190145;23;20023;-85
2022/07/03 07:45:03;;;;;;;1.92;0.90;;;20.20;99.90;;;;;;6165512;23;20021;-85
2022/07/03 07:47:28;;;;;;;0.82;0.82;;;20.20;99.90;;;;;;6165985;23;20056;-85
2022/07/03 07:49:54;;;;;;;1.20;0.93;;;20.30;99.90;;;;;;6141185;23;20023;-85
2022/07/03 07:52:20;;;;;;;1.38;1.27;;;20.20;99.90;;;;;;6189843;23;20461;-84
2022/07/03 07:54:46;;;;;;;1.95;1.00;;;20.30;99.90;;;;;;6165399;23;20472;-89
2022/07/03 07:57:12;;;;;;;1.17;0.90;;;20.50;99.90;;;;;;6165070;23;20020;-88
2022/07/03 07:59:38;;;;;;;1.13;1.00;;;20.60;99.90;;;;;;6189936;23;20035;-86
2022/07/03 08:07:32;;;;;;;1.70;1.10;;;21.00;99.90;;;;;;6168894;23;20025;-85
2022/07/03 08:10:18;;;;;;;1.83;1.05;;;21.20;99.90;;;;;;6166110;23;20150;-86
2022/07/03 08:12:44;;;;;;;1.55;1.00;;;21.30;99.90;;;;;;6191037;23;20055;-86
2022/07/03 08:15:09;;;;;;;4.25;1.13;;;21.50;99.90;;;;;;6166166;23;20020;-86
2022/07/03 08:17:35;;;;;;;1.95;1.23;;;21.60;99.90;;;;;;6191049;23;20020;-86
2022/07/03 08:20:01;;;;;;;2.17;0.93;;;21.70;99.90;;;;;;6142383;23;20095;-86
2022/07/03 08:22:41;;;;;;;4.18;0.98;;;21.70;99.90;;;;;;6165772;23;20303;-86
2022/07/03 08:25:07;;;;;;;1.33;1.20;;;21.80;99.90;;;;;;6190876;23;20047;-86
2022/07/03 08:27:32;;;;;;;0.85;0.85;;;21.90;99.90;;;;;;6165649;23;20434;-85
2022/07/03 08:29:58;;;;;;;2.30;1.13;;;21.90;99.90;;;;;;6190345;23;20023;-85
2022/07/03 08:32:24;;;;;;;3.65;1.13;;;21.90;99.90;;;;;;6216588;23;20017;-85
2022/07/03 08:34:49;;;;;;;1.52;1.02;;;21.90;99.90;;;;;;6189884;23;20016;-87
2022/07/03 08:37:15;;;;;;;2.58;1.60;;;21.90;99.90;;;;;;6139943;23;20028;-85
2022/07/03 08:39:41;;;;;;;4.88;1.42;;;21.70;99.90;;;;;;6187959;23;20104;-90
2022/07/03 08:42:12;;;;;;;1.35;1.10;;;21.60;99.90;;;;;;6164690;23;20020;-88
2022/07/03 08:44:43;;;;;;;1.50;1.15;;;21.40;99.90;;;;;;6167285;23;20035;-88
2022/07/03 08:47:11;;;;;;;0.98;0.90;;;21.20;99.90;;;;;;6165334;23;20441;-87
2022/07/03 08:49:40;;;;;;;0.80;0.80;;;21.10;99.90;;;;;;6190500;23;20020;-87
2022/07/03 08:52:10;;;;;;;1.65;0.98;;;21.10;99.90;;;;;;6190592;23;20024;-92
2022/07/03 08:54:40;;;;;;;2.03;1.00;;;21.10;99.90;;;;;;6190038;23;20158;-90
2022/07/03 08:57:11;;;;;;;1.13;1.00;;;20.20;99.90;;;;;;6165036;23;20078;-92
2022/07/03 08:59:40;;;;;;;1.60;1.33;;;21.20;99.90;;;;;;6164678;23;20025;-90
2022/07/03 09:02:06;;;;;;;0.70;0.70;;;21.40;99.90;;;;;;6189169;23;20028;-92
2022/07/03 09:04:33;;;;;;;2.28;0.80;;;21.40;99.90;;;;;;6164408;23;20020;-84
2022/07/03 09:07:02;;;;;;;1.25;0.93;;;21.60;99.90;;;;;;6164479;23;20460;-86
2022/07/03 09:09:28;;;;;;;1.30;1.08;;;21.60;99.90;;;;;;6188338;23;20013;-85
2022/07/03 09:11:53;;;;;;;0.73;0.70;;;21.70;99.90;;;;;;6189495;23;20020;-84
2022/07/03 09:14:19;;;;;;;1.63;1.00;;;21.70;99.90;;;;;;6218395;23;20020;-86
2022/07/03 09:16:45;;;;;;;1.60;1.00;;;21.80;99.90;;;;;;6164267;23;20028;-87
2022/07/03 09:19:11;;;;;;;1.05;0.90;;;21.80;99.90;;;;;;6188764;23;20023;-87
2022/07/03 09:21:42;;;;;;;1.85;1.27;;;21.80;99.90;;;;;;6164394;23;20082;-87
2022/07/03 09:24:12;;;;;;;1.45;1.25;;;21.90;99.90;;;;;;6164708;23;20392;-90
2022/07/03 09:26:51;;;;;;;1.10;1.00;;;21.90;99.90;;;;;;6165108;23;20019;-85
2022/07/03 09:29:17;;;;;;;1.77;0.70;;;22.00;99.90;;;;;;6189129;23;20095;-86
2022/07/03 09:31:53;;;;;;;1.58;1.20;;;22.00;99.90;;;;;;6189126;23;20075;-90
2022/07/03 09:34:22;;;;;;;2.25;0.90;;;22.10;99.90;;;;;;6164246;23;20013;-86
2022/07/03 09:36:53;;;;;;;1.08;0.75;;;22.10;99.90;;;;;;6189093;23;20051;-85
2022/07/03 09:39:40;;;;;;;3.60;0.57;;;22.10;99.90;;;;;;6165475;23;20012;-87
2022/07/03 09:42:11;;;;;;;1.23;0.93;;;22.10;99.90;;;;;;6144270;23;20055;-86
2022/07/03 09:44:48;;;;;;;6.57;1.38;;;22.20;99.90;;;;;;6164431;23;20071;-88
2022/07/03 09:47:30;;;;;;;1.05;0.85;;;22.10;99.90;;;;;;6189651;23;20012;-91
2022/07/03 09:50:12;;;;;;;0.73;0.65;;;22.20;99.90;;;;;;6140303;23;20108;-89
2022/07/03 09:52:43;;;;;;;0.80;0.80;;;22.10;99.90;;;;;;6163055;23;20016;-91
2022/07/03 09:55:11;;;;;;;0.73;0.70;;;22.30;99.90;;;;;;6190109;23;20052;-89
2022/07/03 09:57:39;;;;;;;0.75;0.68;;;22.30;99.90;;;;;;6163497;23;20020;-89
2022/07/03 10:00:20;;;;;;;3.42;0.80;;;22.40;99.90;;;;;;6163517;23;20016;-91
2022/07/03 10:02:56;;;;;;;0.43;0.43;;;22.50;99.90;;;;;;6163719;23;20078;-87
2022/07/03 10:05:29;;;;;;;0.30;0.30;;;22.50;99.90;;;;;;6164127;23;20309;-92
2022/07/03 10:07:58;;;;;;;0.82;0.50;;;22.40;99.90;;;;;;6164699;23;20279;-93
2022/07/03 10:10:29;;;;;;;2.33;0.40;;;22.30;99.90;;;;;;6163440;23;20021;-87
2022/07/03 10:13:05;;;;;;;1.25;0.40;;;22.30;99.90;;;;;;6163732;23;20013;-89
2022/07/03 10:15:36;;;;;;;0.55;0.55;;;22.30;99.90;;;;;;6163492;23;20476;-87
2022/07/03 10:18:07;;;;;;;0.60;0.60;;;22.20;99.90;;;;;;6188863;23;20024;-90
2022/07/03 10:20:42;;;;;;;0.40;0.40;;;22.30;99.90;;;;;;6163450;23;20458;-88
2022/07/03 10:23:24;;;;;;;0.50;0.50;;;22.50;99.90;;;;;;6165282;23;20465;-89
2022/07/03 10:25:50;;;;;;;1.40;0.70;;;22.50;99.90;;;;;;6164134;23;20020;-89
2022/07/03 10:28:19;;;;;;;0.52;0.52;;;22.60;99.90;;;;;;6164416;23;20027;-90
2022/07/03 10:30:48;;;;;;;1.13;0.57;;;22.60;99.90;;;;;;6164173;23;20017;-90
2022/07/03 10:33:21;;;;;;;1.00;0.70;;;22.40;99.90;;;;;;6164135;23;20078;-89
2022/07/03 10:36:01;;;;;;;0.63;0.63;;;22.30;99.90;;;;;;6164602;23;20394;-89
2022/07/03 10:38:45;;;;;;;1.55;0.57;;;22.30;99.90;;;;;;6188849;23;20544;-91
2022/07/03 10:47:02;;;;;;;0.68;0.43;;;22.80;99.90;;;;;;6189222;23;20468;-90
2022/07/03 10:49:36;;;;;;;0.73;0.50;;;23.00;99.90;;;;;;6164274;23;20449;-89
2022/07/03 10:52:06;;;;;;;0.70;0.55;;;23.00;99.90;;;;;;6141819;23;20059;-91
2022/07/03 10:54:48;;;;;;;1.05;0.50;;;23.20;99.90;;;;;;6163367;23;20017;-90
2022/07/03 10:57:18;;;;;;;0.70;0.70;;;23.30;99.90;;;;;;6164422;23;20457;-90
2022/07/03 10:59:47;;;;;;;0.60;0.60;;;23.30;99.90;;;;;;6188514;23;20070;-91
2022/07/03 11:02:41;;;;;;;1.13;0.88;;;23.30;99.90;;;;;;6164303;23;20151;-89
2022/07/03 11:05:18;;;;;;;0.43;0.43;;;23.30;99.90;;;;;;6164395;23;20016;-90
2022/07/03 11:07:50;;;;;;;3.80;1.10;;;23.90;99.90;;;;;;6163712;23;20044;-90
2022/07/03 11:10:18;;;;;;;1.10;0.55;;;22.50;99.90;;;;;;6163635;23;20083;-90
2022/07/03 11:13:16;;;;;;;0.98;0.63;;;22.90;99.90;;;;;;6164007;23;20392;-90
2022/07/03 11:15:59;;;;;;;2.83;0.60;;;23.00;99.90;;;;;;6120526;23;20019;-89
2022/07/03 11:18:28;;;;;;;1.23;0.60;;;23.00;99.90;;;;;;6165649;23;20075;-92
2022/07/03 11:20:54;;;;;;;1.58;0.65;;;23.10;99.90;;;;;;6164568;23;20016;-90
2022/07/03 11:23:35;;;;;;;1.02;0.98;;;23.10;99.90;;;;;;6163788;23;20453;-89
2022/07/03 11:26:27;;;;;;;0.55;0.55;;;23.70;99.90;;;;;;6164016;23;20056;-91
2022/07/03 11:28:56;;;;;;;0.52;0.52;;;23.00;99.90;;;;;;6164011;23;20017;-90
2022/07/03 11:31:26;;;;;;;0.45;0.45;;;23.30;99.90;;;;;;6163903;23;20075;-89
2022/07/03 11:33:52;;;;;;;0.57;0.57;;;23.90;99.90;;;;;;6163704;23;20013;-90
2022/07/03 11:36:19;;;;;;;0.38;0.38;;;23.30;99.90;;;;;;6163566;23;20055;-90
2022/07/03 11:38:52;;;;;;;0.30;0.30;;;23.40;99.90;;;;;;6188188;23;20019;-91
2022/07/03 11:41:29;;;;;;;0.52;0.50;;;23.30;99.90;;;;;;6163852;23;20095;-91
2022/07/03 11:44:16;;;;;;;;;;;;;;;;;;;;;
2022/07/03 11:46:50;;;;;;;0.70;0.60;;;23.50;99.90;;;;;;6190503;23;19923;-91
2022/07/03 11:49:25;;;;;;;0.40;0.38;;;23.30;99.90;;;;;;6188711;23;20017;-90
2022/07/03 11:51:59;;;;;;;0.90;0.45;;;23.30;99.90;;;;;;6163961;23;20382;-90
2022/07/03 11:54:29;;;;;;;1.35;0.73;;;23.30;99.90;;;;;;6164379;23;20454;-90
2022/07/03 11:57:03;;;;;;;2.25;0.60;;;23.10;99.90;;;;;;6164574;23;20099;-91
2022/07/03 11:59:49;;;;;;;1.02;0.63;;;23.10;99.90;;;;;;6141452;23;20020;-91
2022/07/03 12:02:15;;;;;;;1.20;1.02;;;23.10;99.90;;;;;;6165294;23;20021;-90
2022/07/03 12:04:43;;;;;;;2.47;0.95;;;23.10;99.90;;;;;;6165303;23;20021;-90
2022/07/03 12:07:19;;;;;;;;;;;;;;;;;;;;;
2022/07/03 12:09:50;;;;;;;2.40;0.80;;;23.10;99.90;;;;;;6190121;23;20103;-90
2022/07/03 12:12:26;;;;;;;2.00;1.25;;;23.20;99.90;;;;;;6166844;23;20028;-89
2022/07/03 12:15:10;;;;;;;3.10;1.63;;;22.20;99.90;;;;;;6141441;23;20020;-91
2022/07/03 12:17:46;;;;;;;1.05;0.93;;;23.10;99.90;;;;;;6142006;23;20078;-90
2022/07/03 12:20:17;;;;;;;2.83;0.93;;;22.80;99.90;;;;;;6165676;23;20091;-91
2022/07/03 12:22:47;;;;;;;4.45;1.30;;;22.30;99.90;;;;;;6164781;23;20152;-91
2022/07/03 12:25:15;;;;;;;1.90;1.30;;;22.90;99.90;;;;;;6165487;23;20056;-91
2022/07/03 12:27:47;;;;;;;5.05;3.17;;;22.80;99.90;;;;;;6165572;23;20021;-90
2022/07/03 12:30:25;;;;;;;0.95;0.80;;;22.80;99.90;;;;;;6164483;23;20021;-91
2022/07/03 12:33:02;;;;;;;;;;;;;;;;;;;;;
2022/07/03 12:35:33;;;;;;;2.13;0.75;;;22.20;99.90;;;;;;6190885;23;20019;-90
2022/07/03 12:38:33;;;;;;;2.08;1.00;;;22.70;99.90;;;;;;6164462;23;20020;-90
2022/07/03 12:41:09;;;;;;;3.28;1.60;;;21.90;99.90;;;;;;6165569;23;20441;-90
2022/07/03 12:43:45;;;;;;;0.65;0.60;;;22.70;99.90;;;;;;6165168;23;20340;-95
2022/07/03 12:46:38;;;;;;;1.02;0.90;;;22.90;99.90;;;;;;6164974;23;20023;-90
2022/07/03 12:49:11;;;;;;;0.82;0.70;;;22.90;99.90;;;;;;6164928;23;20021;-89
2022/07/03 12:51:57;;;;;;;1.15;0.75;;;22.90;99.90;;;;;;6164190;23;20516;-93
2022/07/03 12:54:32;;;;;;;2.65;0.60;;;22.70;99.90;;;;;;6164711;23;20013;-90
2022/07/03 13:00:19;;;;;;;3.08;0.75;;;22.70;99.90;;;;;;6189335;23;20457;-90
2022/07/03 13:02:52;;;;;;;0.75;0.70;;;23.20;99.90;;;;;;6164671;23;20059;-90
2022/07/03 13:05:32;;;;;;;1.33;0.68;;;22.70;99.90;;;;;;6165355;23;20103;-89
2022/07/03 13:08:10;;;;;;;1.85;0.73;;;22.70;99.90;;;;;;6140440;23;20016;-90
2022/07/03 13:11:04;;;;;;;0.70;0.70;;;22.70;99.90;;;;;;6165358;23;20017;-90
2022/07/03 13:13:48;;;;;;;1.33;1.10;;;22.70;99.90;;;;;;6188639;23;20494;-89
2022/07/03 13:16:29;;;;;;;1.00;1.00;;;22.70;99.90;;;;;;6165158;23;20028;-90
2022/07/03 13:19:08;;;;;;;0.70;0.60;;;22.80;99.90;;;;;;6189496;23;20082;-89
2022/07/03 13:21:42;;;;;;;0.82;0.57;;;22.80;99.90;;;;;;6189779;23;20016;-90
2022/07/03 13:24:09;;;;;;;0.57;0.57;;;22.90;99.90;;;;;;6189783;23;20019;-89
2022/07/03 13:26:37;;;;;;;0.60;0.60;;;23.00;99.90;;;;;;6189233;23;20442;-90
2022/07/03 13:29:06;;;;;;;1.55;0.95;;;23.10;99.90;;;;;;6189121;23;20020;-90
2022/07/03 13:31:35;;;;;;;1.02;0.50;;;23.10;99.90;;;;;;6164846;23;20027;-90
2022/07/03 13:34:18;;;;;;;2.05;0.70;;;23.00;99.90;;;;;;6188741;23;20051;-90
2022/07/03 13:36:57;;;;;;;1.70;0.63;;;23.00;99.90;;;;;;6140846;23;20037;-90
2022/07/03 13:39:26;;;;;;;0.88;0.80;;;22.80;99.90;;;;;;6164846;23;20558;-89
2022/07/03 13:42:14;;;;;;;;;;;;;;;;;;;;;
2022/07/03 13:44:52;;;;;;;0.93;0.65;;;22.50;99.90;;;;;;6189563;23;20013;-89